Aérodrome :
LOGIN :

S'inscrire | Disclaimer

   EN    FR    IT 

 










Légende :    VFR   VFR Marginal   IFR   IFR Intensif   IFR Très Intensif
Visi : 
Plafond : 
>= 8 km
>= 3000ft
5 à 8 km
1000 à 3000 ft
1500m à 5 km
500 à 1000 ft
800 à 1500m
200 à 500 ft
< 800m
< 200 ft
Symboles :   Orages  Brouillard  Fortes neiges  Fortes précipitations  Vent > 20 kt
SIGMETs :   Divers  Orages  Givrage  Turbulence  Onde Orograph.  Cendres Volcan.







- Altitude de l'aérodrome : 20 ft


EBFN - Koksijde

DERNIER METAR :
  • 211725Z AUTO 18005KT 9999 FEW140/// 17/12 Q1017 BLU

METARs EXPIRÉS :
  • 211655Z AUTO 20005KT 9999 BKN120/// 17/12 Q1017 BLU
  • 211625Z AUTO 19007KT 9999 BKN130/// 18/11 Q1017 BLU
  • 211555Z AUTO 18008KT 9999 BKN140/// 19/11 Q1017 BLU
  • 211525Z AUTO 19010KT 9999 FEW140/// 19/11 Q1017 BLU
  • 211455Z AUTO 18011KT 9999 NCD 19/11 Q1017 BLU

TAF TAF EBFN
Valide du 21 à 13h jusqu'au 21 à 22h UTC


211235Z 2113/2122 18010KT 9999 FEW025 SCT150 BKN220
Pas de NOTAMs connus pour ce terrain.



MET'MAP, la Météo Aéronautique d'un coup d'oeil ! - Copyright ORBIFLY Décembre 2007 - Disclaimer

ORBIFLY MET'MAP TEAM :

Programmation & Développement : Alexandra Zaïnal
Conception & Développement : Baudouin d'Aumeries
Co-Programmation & Développement : Marc-Olivier Méhu
Soutien technique & logistique : Manuel Goepfert

Contact : metmap@orbifly.com




SOURCES & CREDITS :

   NOAA